In Rescue
 
Open Full Screen Window  High Contrast Mode
Wind Gusting 00 knots
03
March 20, 2019 7:55 PM CDT
Weather Information
Wind Direction
  310 °
Wind Speed
  03 kt (3 mph)
Wind Gust
  00 kt (0 mph)
Altimeter
30.07 in
Visibility
10 SM
Temperature
03° C
37° F
Dewpoint
-02° C
28° F
Humidity
70%
1hr Rain Fall
00.00 in.
24hr Rain Fall
00.00 in.
Sky Condition
Missing
VFR

METAR KCQM 210055Z AUTO 31003KT 10SM 03/M02 A3007 RMK AO2

FAA Disclaimer: The data displayed is for advisory purposes only and is not to be used for flight planning or operations.
Missing Cloud Data